createdAt,value
2022-12-10T00:00:09.425Z,24.83
2022-12-10T00:02:14.498Z,22.27
2022-12-10T00:04:19.878Z,26.35
2022-12-10T00:06:27.000Z,25.85
2022-12-10T00:08:32.322Z,23.65
2022-12-10T00:10:37.137Z,28.70
2022-12-10T00:12:44.505Z,29.38
2022-12-10T00:14:49.393Z,25.88
2022-12-10T00:16:54.123Z,29.20
2022-12-10T00:18:59.267Z,27.27
2022-12-10T00:23:10.883Z,31.05
2022-12-10T00:25:15.629Z,30.88
2022-12-10T00:27:20.680Z,31.67
2022-12-10T00:29:28.028Z,27.50
2022-12-10T00:31:34.925Z,28.70
2022-12-10T00:33:40.481Z,31.27
2022-12-10T00:35:45.296Z,30.70
2022-12-10T00:37:50.121Z,27.17
2022-12-10T00:39:55.060Z,29.70
2022-12-10T00:41:59.824Z,30.85
2022-12-10T00:44:04.658Z,27.40
2022-12-10T00:46:13.516Z,27.98
2022-12-10T00:48:18.765Z,27.35
2022-12-10T00:50:23.582Z,27.85
2022-12-10T00:52:28.412Z,29.20
2022-12-10T00:54:33.231Z,23.98
2022-12-10T00:56:38.448Z,26.75
2022-12-10T01:00:47.840Z,26.83
2022-12-10T01:02:55.219Z,26.58
2022-12-10T01:05:00.264Z,30.42
2022-12-10T01:07:10.966Z,28.77
2022-12-10T01:09:19.561Z,31.52
2022-12-10T01:11:25.930Z,31.08
2022-12-10T01:13:30.938Z,26.90
2022-12-10T01:15:40.281Z,26.48
2022-12-10T01:17:45.189Z,27.10
2022-12-10T01:19:54.721Z,26.38
2022-12-10T01:22:00.669Z,27.13
2022-12-10T01:24:06.298Z,24.08
2022-12-10T01:26:14.254Z,27.40
2022-12-10T01:28:19.037Z,29.90
2022-12-10T01:30:24.018Z,27.40
2022-12-10T01:32:28.787Z,24.77
2022-12-10T01:34:33.558Z,29.35
2022-12-10T01:36:43.182Z,30.80
2022-12-10T01:38:50.431Z,25.67
2022-12-10T01:40:55.648Z,26.13
2022-12-10T01:45:10.872Z,29.90
2022-12-10T01:47:15.658Z,31.52
2022-12-10T01:49:22.367Z,24.92
2022-12-10T01:51:29.258Z,27.40
2022-12-10T01:53:37.415Z,27.05
2022-12-10T01:55:46.469Z,31.23
2022-12-10T01:57:52.002Z,28.67
2022-12-10T02:00:00.299Z,26.30
2022-12-10T02:02:13.176Z,29.70
2022-12-10T02:04:27.415Z,29.48
2022-12-10T02:06:47.866Z,28.55
2022-12-10T02:09:05.731Z,27.30
2022-12-10T02:11:20.018Z,30.73
2022-12-10T02:13:33.287Z,27.88
2022-12-10T02:15:44.722Z,29.98
2022-12-10T02:17:52.860Z,27.58
2022-12-10T02:20:05.684Z,27.45
2022-12-10T02:22:12.896Z,30.55
2022-12-10T02:24:25.566Z,25.42
2022-12-10T02:26:40.531Z,31.02
2022-12-10T02:28:59.178Z,26.77
2022-12-10T02:31:08.764Z,27.50
2022-12-10T02:33:17.031Z,26.10
2022-12-10T02:35:26.710Z,29.35
2022-12-10T02:37:35.630Z,29.25
2022-12-10T02:39:46.383Z,28.38
2022-12-10T02:41:55.551Z,30.35
2022-12-10T02:44:03.408Z,30.10
2022-12-10T02:46:11.500Z,24.83
2022-12-10T02:48:18.038Z,27.77
2022-12-10T02:50:24.763Z,29.65
2022-12-10T02:52:29.690Z,26.55
2022-12-10T02:54:41.329Z,25.58
2022-12-10T02:57:00.724Z,26.10
2022-12-10T02:59:16.590Z,28.48
2022-12-10T03:01:36.260Z,28.77
2022-12-10T03:03:49.007Z,27.45
2022-12-10T03:06:03.585Z,27.27
2022-12-10T03:08:15.509Z,24.27
2022-12-10T03:10:28.463Z,29.30
2022-12-10T03:12:38.212Z,27.85
2022-12-10T03:14:44.298Z,26.88
2022-12-10T03:16:57.124Z,28.55
2022-12-10T03:19:06.737Z,26.13
2022-12-10T03:21:13.675Z,28.33
2022-12-10T03:23:22.117Z,25.77
2022-12-10T03:25:30.315Z,22.77
2022-12-10T03:27:36.975Z,31.38
2022-12-10T03:29:47.735Z,26.35
2022-12-10T03:31:57.251Z,25.35
2022-12-10T03:34:02.487Z,27.00
2022-12-10T03:36:09.564Z,31.77
2022-12-10T03:38:14.577Z,30.38
2022-12-10T03:40:21.838Z,29.50
2022-12-10T03:42:26.724Z,27.50
2022-12-10T03:44:32.949Z,23.80
2022-12-10T03:46:38.036Z,27.23
2022-12-10T03:50:49.978Z,25.52
2022-12-10T03:52:55.181Z,28.98
2022-12-10T03:54:59.906Z,28.90
2022-12-10T03:57:04.736Z,29.23
2022-12-10T03:59:09.539Z,27.23
2022-12-10T04:01:14.443Z,31.33
2022-12-10T04:03:19.254Z,30.60
2022-12-10T04:05:26.805Z,26.27
2022-12-10T04:07:31.671Z,27.42
2022-12-10T04:09:36.567Z,30.75
2022-12-10T04:11:41.328Z,32.10
2022-12-10T04:13:59.056Z,29.48
2022-12-10T04:16:25.020Z,28.50
2022-12-10T04:18:29.807Z,28.38
2022-12-10T04:20:49.671Z,31.98
2022-12-10T04:23:06.882Z,30.42
2022-12-10T04:25:26.478Z,31.00
2022-12-10T04:27:33.523Z,28.20
2022-12-10T04:29:38.466Z,26.02
2022-12-10T04:31:43.320Z,25.25
2022-12-10T04:33:48.154Z,25.27
2022-12-10T04:35:55.517Z,28.15
2022-12-10T04:38:00.260Z,28.30
2022-12-10T04:40:05.756Z,32.78
2022-12-10T04:42:11.277Z,27.85
2022-12-10T04:44:16.510Z,25.75
2022-12-10T04:46:22.462Z,29.42
2022-12-10T04:48:27.526Z,29.65
2022-12-10T04:50:32.261Z,30.00
2022-12-10T04:52:39.654Z,29.55
2022-12-10T04:54:44.561Z,24.80
2022-12-10T04:56:49.620Z,26.90
2022-12-10T04:58:54.429Z,27.60
2022-12-10T05:01:05.129Z,28.85
2022-12-10T05:03:10.067Z,27.05
2022-12-10T05:05:14.894Z,26.27
2022-12-10T05:07:19.640Z,27.52
2022-12-10T05:09:26.976Z,31.88
2022-12-10T05:11:33.387Z,29.08
2022-12-10T05:13:41.327Z,27.60
2022-12-10T05:15:46.134Z,24.77
2022-12-10T05:17:50.905Z,26.73
2022-12-10T05:19:55.647Z,26.55
2022-12-10T05:22:12.839Z,30.20
2022-12-10T05:24:18.642Z,28.73
2022-12-10T05:26:27.685Z,27.30
2022-12-10T05:28:33.660Z,27.17
2022-12-10T05:30:38.803Z,28.92
2022-12-10T05:32:43.624Z,24.90
2022-12-10T05:34:48.464Z,26.80
2022-12-10T05:36:53.367Z,25.98
2022-12-10T05:38:59.782Z,25.08
2022-12-10T05:41:05.342Z,29.75
2022-12-10T05:43:12.742Z,24.27
2022-12-10T05:45:17.523Z,28.92
2022-12-10T05:47:22.296Z,27.42
2022-12-10T05:49:27.047Z,30.75
2022-12-10T05:51:33.517Z,29.77
2022-12-10T05:53:38.497Z,24.88
2022-12-10T05:55:43.886Z,29.45
2022-12-10T05:57:48.644Z,29.05
2022-12-10T05:59:56.038Z,31.30
2022-12-10T06:02:00.812Z,31.13
2022-12-10T06:04:07.880Z,34.15
2022-12-10T06:06:13.131Z,34.45
2022-12-10T06:08:18.362Z,28.98
2022-12-10T06:10:23.178Z,29.92
2022-12-10T06:14:33.122Z,33.90
2022-12-10T06:16:40.602Z,33.28
2022-12-10T06:18:46.036Z,31.42
2022-12-10T06:20:51.415Z,33.00
2022-12-10T06:22:56.426Z,33.22
2022-12-10T06:25:01.215Z,29.23
2022-12-10T06:27:06.314Z,26.88
2022-12-10T06:31:16.133Z,26.27
2022-12-10T06:33:23.596Z,29.83
2022-12-10T06:35:28.357Z,29.15
2022-12-10T06:37:33.158Z,30.00
2022-12-10T06:39:37.987Z,30.65
2022-12-10T06:41:44.929Z,29.83
2022-12-10T06:43:49.874Z,30.55
2022-12-10T06:45:54.701Z,31.30
2022-12-10T06:47:59.458Z,30.58
2022-12-10T06:50:08.273Z,30.33
2022-12-10T06:52:13.301Z,30.85
2022-12-10T06:54:18.352Z,29.30
2022-12-10T06:56:23.814Z,32.17
2022-12-10T06:58:32.200Z,32.33
2022-12-10T07:00:37.019Z,31.52
2022-12-10T07:02:41.828Z,32.60
2022-12-10T07:04:46.649Z,34.20
2022-12-10T07:06:54.748Z,32.72
2022-12-10T07:08:59.486Z,34.50
2022-12-10T07:11:07.340Z,32.17
2022-12-10T07:13:12.056Z,30.98
2022-12-10T07:15:16.859Z,32.40
2022-12-10T07:17:21.724Z,37.03
2022-12-10T07:19:26.570Z,35.05
2022-12-10T07:21:33.531Z,35.47
2022-12-10T07:23:40.906Z,32.58
2022-12-10T07:25:45.692Z,35.22
2022-12-10T07:27:54.681Z,33.92
2022-12-10T07:30:02.323Z,34.70
2022-12-10T07:32:07.472Z,33.83
2022-12-10T07:36:18.316Z,35.50
2022-12-10T07:38:23.198Z,34.30
2022-12-10T07:40:30.729Z,32.85
2022-12-10T07:42:35.502Z,34.17
2022-12-10T07:44:41.446Z,34.17
2022-12-10T07:46:48.626Z,33.28
2022-12-10T07:48:53.838Z,33.60
2022-12-10T07:53:04.249Z,32.63
2022-12-10T07:55:09.527Z,32.78
2022-12-10T07:57:17.923Z,29.40
2022-12-10T07:59:22.684Z,36.97
2022-12-10T08:01:29.314Z,32.95
2022-12-10T08:03:34.088Z,36.00
2022-12-10T08:05:38.925Z,37.00
2022-12-10T08:07:43.751Z,36.20
2022-12-10T08:09:48.580Z,39.92
2022-12-10T08:11:53.406Z,32.63
2022-12-10T08:14:01.515Z,37.83
2022-12-10T08:16:08.532Z,34.97
2022-12-10T08:18:13.344Z,32.28
2022-12-10T08:20:18.141Z,39.42
2022-12-10T08:22:23.077Z,34.53
2022-12-10T08:24:27.906Z,35.92
2022-12-10T08:26:35.763Z,40.67
2022-12-10T08:28:40.549Z,37.58
2022-12-10T08:32:56.254Z,33.80
2022-12-10T08:35:01.094Z,32.95
2022-12-10T08:37:12.038Z,38.08
2022-12-10T08:39:18.768Z,36.67
2022-12-10T08:41:25.245Z,39.03
2022-12-10T08:43:30.037Z,36.95
2022-12-10T08:45:34.795Z,31.73
2022-12-10T08:47:42.622Z,32.42
2022-12-10T08:49:47.357Z,34.28
2022-12-10T08:51:52.159Z,38.08
2022-12-10T08:53:56.982Z,36.05
2022-12-10T08:56:02.270Z,35.15
2022-12-10T09:00:14.126Z,36.92
2022-12-10T09:02:18.932Z,35.90
2022-12-10T09:04:27.089Z,32.80
2022-12-10T09:06:31.984Z,38.40
2022-12-10T09:08:37.114Z,34.63
2022-12-10T09:12:46.725Z,29.35
2022-12-10T09:15:04.839Z,38.75
2022-12-10T09:17:09.808Z,31.10
2022-12-10T09:19:19.905Z,35.20
2022-12-10T09:21:27.972Z,35.10
2022-12-10T09:23:32.819Z,34.85
2022-12-10T09:25:40.035Z,35.42
2022-12-10T09:27:45.207Z,33.25
2022-12-10T09:29:50.141Z,32.17
2022-12-10T09:31:55.312Z,33.55
2022-12-10T09:36:07.880Z,35.47
2022-12-10T09:38:15.444Z,36.45
2022-12-10T09:40:21.406Z,38.05
2022-12-10T09:42:37.901Z,33.35
2022-12-10T09:44:56.233Z,34.40
2022-12-10T09:47:04.827Z,30.52
2022-12-10T09:49:21.487Z,34.40
2022-12-10T09:51:29.364Z,29.75
2022-12-10T09:53:37.708Z,35.42
2022-12-10T09:55:47.751Z,31.80
2022-12-10T09:57:54.665Z,34.05
2022-12-10T10:00:01.807Z,32.72
2022-12-10T10:02:26.057Z,31.70
2022-12-10T10:04:30.916Z,34.55
2022-12-10T10:06:37.042Z,35.08
2022-12-10T10:08:47.743Z,31.02
2022-12-10T10:10:52.733Z,32.95
2022-12-10T10:13:01.249Z,35.50
2022-12-10T10:15:16.757Z,35.20
2022-12-10T10:17:32.691Z,33.17
2022-12-10T10:19:40.008Z,33.65
2022-12-10T10:21:47.386Z,35.00
2022-12-10T10:23:55.417Z,33.67
2022-12-10T10:26:00.758Z,29.83
2022-12-10T10:28:05.879Z,29.73
2022-12-10T10:30:17.643Z,27.58
2022-12-10T10:32:24.903Z,30.80
2022-12-10T10:34:29.688Z,28.52
2022-12-10T10:36:35.953Z,32.05
2022-12-10T10:38:40.832Z,33.15
2022-12-10T10:40:49.888Z,31.40
2022-12-10T10:42:57.815Z,35.60
2022-12-10T10:45:02.895Z,34.63
2022-12-10T10:49:48.051Z,36.00
2022-12-10T10:51:52.838Z,35.80
2022-12-10T10:54:03.304Z,37.92
2022-12-10T10:56:17.853Z,38.70
2022-12-10T10:58:23.663Z,35.85
2022-12-10T11:00:28.610Z,32.28
2022-12-10T11:02:37.147Z,38.70
2022-12-10T11:04:49.864Z,33.50
2022-12-10T11:06:59.768Z,32.92
2022-12-10T11:09:05.095Z,32.63
2022-12-10T11:11:22.861Z,34.35
2022-12-10T11:13:30.419Z,31.85
2022-12-10T11:15:38.300Z,31.98
2022-12-10T11:17:51.238Z,37.53
2022-12-10T11:20:02.622Z,34.80
2022-12-10T11:22:21.004Z,36.67
2022-12-10T11:24:25.890Z,33.33
2022-12-10T11:26:46.792Z,38.70
2022-12-10T11:29:05.056Z,38.72
2022-12-10T11:31:25.807Z,37.15
2022-12-10T11:33:38.691Z,36.17
2022-12-10T11:35:51.964Z,38.88
2022-12-10T11:38:06.335Z,34.90
2022-12-10T11:40:31.937Z,42.55
2022-12-10T11:42:51.373Z,38.17
2022-12-10T11:45:06.043Z,37.80
2022-12-10T11:47:35.353Z,38.08
2022-12-10T11:49:44.825Z,39.63
2022-12-10T11:52:03.348Z,44.47
2022-12-10T11:54:30.358Z,42.53
2022-12-10T11:56:40.306Z,35.67
2022-12-10T11:59:10.092Z,31.30
2022-12-10T12:01:24.494Z,42.10
2022-12-10T12:03:45.749Z,42.38
2022-12-10T12:06:07.672Z,42.75
2022-12-10T12:08:21.162Z,40.30
2022-12-10T12:10:54.909Z,42.47
2022-12-10T12:13:04.586Z,40.42
2022-12-10T12:15:21.066Z,38.40
2022-12-10T12:17:30.720Z,37.97
2022-12-10T12:19:41.152Z,41.10
2022-12-10T12:21:48.318Z,40.70
2022-12-10T12:24:02.051Z,42.15
2022-12-10T12:26:15.072Z,39.45
2022-12-10T12:28:27.453Z,41.65
2022-12-10T12:30:36.387Z,34.90
2022-12-10T12:32:50.506Z,42.33
2022-12-10T12:35:03.079Z,34.85
2022-12-10T12:37:08.498Z,35.20
2022-12-10T12:39:20.980Z,38.55
2022-12-10T12:41:35.527Z,42.15
2022-12-10T12:43:48.396Z,41.00
2022-12-10T12:45:58.082Z,41.20
2022-12-10T12:48:10.428Z,34.30
2022-12-10T12:50:27.303Z,35.70
2022-12-10T12:52:43.773Z,34.78
2022-12-10T12:54:49.654Z,37.65
2022-12-10T12:57:05.394Z,40.13
2022-12-10T13:01:32.391Z,57.72
2022-12-10T13:03:40.268Z,38.63
2022-12-10T13:05:45.458Z,37.92
2022-12-10T13:10:29.516Z,80.10
2022-12-10T13:12:48.365Z,44.00
2022-12-10T13:15:07.129Z,35.75
2022-12-10T13:17:30.442Z,41.75
2022-12-10T13:19:35.522Z,35.20
2022-12-10T13:22:00.522Z,32.63
2022-12-10T13:24:14.037Z,35.17
2022-12-10T13:26:29.011Z,33.28
2022-12-10T13:28:51.891Z,44.53
2022-12-10T13:31:22.643Z,33.15
2022-12-10T13:33:50.712Z,34.95
2022-12-10T13:36:08.920Z,36.78
2022-12-10T13:38:24.337Z,41.90
2022-12-10T13:40:52.042Z,40.75
2022-12-10T13:43:15.047Z,38.50
2022-12-10T13:45:33.360Z,40.30
2022-12-10T13:47:49.573Z,37.03
2022-12-10T13:49:59.797Z,36.22
2022-12-10T13:52:07.854Z,34.53
2022-12-10T13:54:34.685Z,34.05
2022-12-10T13:56:45.660Z,38.47
2022-12-10T13:58:58.057Z,37.53
2022-12-10T14:01:13.041Z,38.63
2022-12-10T14:03:55.567Z,38.80
2022-12-10T14:06:20.344Z,39.67
2022-12-10T14:08:32.518Z,36.13
2022-12-10T14:10:39.858Z,37.30
2022-12-10T14:12:46.716Z,39.58
2022-12-10T14:15:03.069Z,38.20
2022-12-10T14:17:10.769Z,40.90
2022-12-10T14:19:19.452Z,39.53
2022-12-10T14:21:28.285Z,34.60
2022-12-10T14:23:45.765Z,37.75
2022-12-10T14:25:58.847Z,36.80
2022-12-10T14:28:05.897Z,34.70
2022-12-10T14:30:20.443Z,35.67
2022-12-10T14:32:33.468Z,33.35
2022-12-10T14:34:39.992Z,34.65
2022-12-10T14:36:52.372Z,32.75
2022-12-10T14:38:59.967Z,39.65
2022-12-10T14:41:07.755Z,32.28
2022-12-10T14:43:18.859Z,39.00
2022-12-10T14:45:23.968Z,31.23
2022-12-10T14:49:33.535Z,32.47
2022-12-10T14:51:41.383Z,34.90
2022-12-10T14:53:49.808Z,32.58
2022-12-10T14:55:57.902Z,33.80
2022-12-10T14:58:07.900Z,33.08
2022-12-10T15:00:18.038Z,35.47
2022-12-10T15:02:28.142Z,32.70
2022-12-10T15:04:42.981Z,34.95
2022-12-10T15:06:48.571Z,31.43
2022-12-10T15:09:02.078Z,33.78
2022-12-10T15:11:07.603Z,36.25
2022-12-10T15:13:22.788Z,28.15
2022-12-10T15:15:33.433Z,31.25
2022-12-10T15:17:41.693Z,27.77
2022-12-10T15:19:54.018Z,25.85
2022-12-10T15:22:03.584Z,28.60
2022-12-10T15:24:23.015Z,27.30
2022-12-10T15:26:31.796Z,26.40
2022-12-10T15:28:39.662Z,26.23
2022-12-10T15:30:48.348Z,24.02
2022-12-10T15:32:53.250Z,27.52
2022-12-10T15:35:05.005Z,24.48
2022-12-10T15:37:18.978Z,25.35
2022-12-10T15:39:30.044Z,23.05
2022-12-10T15:41:45.186Z,23.65
2022-12-10T15:44:02.046Z,25.67
2022-12-10T15:46:09.016Z,23.10
2022-12-10T15:48:16.455Z,23.35
2022-12-10T15:50:21.874Z,23.33
2022-12-10T15:52:29.146Z,20.13
2022-12-10T15:54:38.871Z,21.80
2022-12-10T15:56:43.643Z,21.05
2022-12-10T15:58:48.474Z,22.73
2022-12-10T16:00:56.595Z,19.98
2022-12-10T16:03:04.315Z,20.45
2022-12-10T16:05:16.527Z,19.58
2022-12-10T16:07:21.756Z,19.08
2022-12-10T16:11:35.550Z,18.35
2022-12-10T16:13:41.456Z,19.10
2022-12-10T16:15:49.899Z,18.10
2022-12-10T16:17:54.908Z,18.92
2022-12-10T16:20:03.439Z,20.02
2022-12-10T16:22:08.494Z,19.58
2022-12-10T16:24:13.327Z,21.10
2022-12-10T16:26:20.276Z,20.98
2022-12-10T16:28:28.553Z,24.70
2022-12-10T16:30:41.211Z,20.70
2022-12-10T16:32:53.561Z,19.10
2022-12-10T16:35:00.709Z,20.00
2022-12-10T16:37:06.328Z,19.23
2022-12-10T16:39:11.299Z,18.15
2022-12-10T16:41:20.565Z,20.15
2022-12-10T16:43:29.735Z,17.80
2022-12-10T16:45:39.073Z,17.35
2022-12-10T16:47:44.009Z,17.55
2022-12-10T16:49:48.830Z,18.92
2022-12-10T16:51:53.942Z,18.10
2022-12-10T16:56:03.357Z,17.65
2022-12-10T16:58:12.159Z,18.88
2022-12-10T17:00:22.587Z,19.02
2022-12-10T17:02:29.357Z,19.45
2022-12-10T17:04:34.222Z,19.10
2022-12-10T17:06:39.071Z,20.13
2022-12-10T17:08:44.020Z,23.55
2022-12-10T17:11:03.173Z,18.73
2022-12-10T17:13:08.013Z,21.30
2022-12-10T17:15:17.450Z,19.98
2022-12-10T17:17:25.305Z,20.58
2022-12-10T17:19:34.067Z,19.70
2022-12-10T17:21:38.992Z,19.73
2022-12-10T17:23:43.884Z,19.67
2022-12-10T17:25:49.918Z,22.60
2022-12-10T17:27:54.747Z,20.08
2022-12-10T17:30:01.700Z,21.58
2022-12-10T17:32:07.678Z,21.70
2022-12-10T17:34:16.677Z,21.48
2022-12-10T17:36:21.558Z,21.55
2022-12-10T17:38:29.222Z,19.70
2022-12-10T17:40:35.019Z,19.63
2022-12-10T17:42:39.861Z,22.23
2022-12-10T17:44:44.722Z,20.73
2022-12-10T17:46:49.486Z,20.92
2022-12-10T17:48:56.685Z,20.38
2022-12-10T17:51:04.150Z,19.48
2022-12-10T17:53:15.091Z,20.50
2022-12-10T17:55:20.165Z,19.52
2022-12-10T17:59:33.143Z,22.45
2022-12-10T18:01:47.875Z,18.95
2022-12-10T18:03:53.527Z,19.30
2022-12-10T18:05:58.420Z,19.67
2022-12-10T18:08:05.801Z,24.50
2022-12-10T18:10:20.178Z,29.98
2022-12-10T18:12:24.984Z,24.33
2022-12-10T18:14:29.889Z,23.20
2022-12-10T18:16:37.833Z,24.70
2022-12-10T18:18:43.156Z,24.50
2022-12-10T18:20:48.703Z,22.23
2022-12-10T18:22:54.443Z,26.65
2022-12-10T18:25:01.799Z,24.42
2022-12-10T18:27:07.157Z,24.85
2022-12-10T18:31:22.942Z,24.25
2022-12-10T18:33:27.900Z,24.73
2022-12-10T18:35:33.781Z,22.35
2022-12-10T18:37:38.572Z,24.58
2022-12-10T18:39:43.498Z,23.92
2022-12-10T18:41:51.758Z,22.95
2022-12-10T18:43:56.766Z,22.70
2022-12-10T18:46:01.618Z,23.27
2022-12-10T18:48:06.817Z,21.23
2022-12-10T18:52:21.146Z,33.45
2022-12-10T18:54:25.922Z,31.05
2022-12-10T18:56:32.770Z,34.70
2022-12-10T18:58:40.182Z,29.83
2022-12-10T19:00:44.971Z,23.42
2022-12-10T19:02:50.523Z,24.58
2022-12-10T19:04:57.510Z,24.17
2022-12-10T19:07:03.232Z,21.20
2022-12-10T19:09:20.807Z,26.27
2022-12-10T19:11:27.450Z,23.27
2022-12-10T19:13:32.292Z,20.30
2022-12-10T19:15:43.027Z,27.45
2022-12-10T19:17:49.054Z,24.40
2022-12-10T19:19:53.937Z,22.85
2022-12-10T19:21:58.751Z,25.50
2022-12-10T19:24:03.618Z,23.90
2022-12-10T19:26:17.844Z,27.98
2022-12-10T19:28:23.134Z,28.30
2022-12-10T19:30:30.922Z,25.38
2022-12-10T19:32:38.321Z,22.67
2022-12-10T19:34:43.123Z,26.80
2022-12-10T19:36:49.385Z,26.23
2022-12-10T19:38:54.635Z,27.95
2022-12-10T19:43:05.021Z,25.65
2022-12-10T19:45:10.732Z,23.92
2022-12-10T19:47:19.742Z,27.25
2022-12-10T19:49:27.121Z,29.33
2022-12-10T19:51:31.957Z,30.50
2022-12-10T19:53:36.770Z,29.42
2022-12-10T19:55:41.563Z,33.00
2022-12-10T19:57:46.702Z,30.13
2022-12-10T20:01:56.057Z,30.45
2022-12-10T20:04:03.881Z,28.05
2022-12-10T20:06:15.223Z,28.20
2022-12-10T20:08:20.079Z,27.02
2022-12-10T20:10:27.574Z,30.98
2022-12-10T20:12:32.395Z,28.50
2022-12-10T20:14:37.135Z,28.30
2022-12-10T20:16:42.863Z,28.58
2022-12-10T20:18:47.925Z,28.27
2022-12-10T20:20:52.899Z,25.85
2022-12-10T20:23:00.479Z,28.05
2022-12-10T20:25:05.285Z,26.25
2022-12-10T20:27:10.077Z,26.33
2022-12-10T20:29:18.726Z,27.73
2022-12-10T20:31:24.005Z,25.00
2022-12-10T20:33:58.562Z,23.25
2022-12-10T20:35:54.408Z,27.02
2022-12-10T20:38:01.776Z,23.83
2022-12-10T20:40:33.160Z,25.27
2022-12-10T20:42:31.989Z,22.17
2022-12-10T20:44:36.820Z,23.75
2022-12-10T20:46:42.367Z,24.23
2022-12-10T20:48:47.256Z,24.08
2022-12-10T20:50:52.055Z,25.42
2022-12-10T20:52:56.788Z,24.40
2022-12-10T20:55:04.211Z,24.50
2022-12-10T20:57:09.196Z,24.85
2022-12-10T20:59:16.590Z,26.38
2022-12-10T21:01:22.678Z,26.08
2022-12-10T21:03:27.661Z,26.48
2022-12-10T21:05:32.386Z,25.95
2022-12-10T21:07:37.166Z,27.52
2022-12-10T21:09:41.948Z,25.50
2022-12-10T21:11:49.413Z,25.60
2022-12-10T21:13:54.192Z,29.83
2022-12-10T21:16:01.424Z,27.83
2022-12-10T21:18:06.549Z,28.13
2022-12-10T21:20:13.657Z,24.85
2022-12-10T21:22:18.671Z,26.83
2022-12-10T21:24:23.428Z,29.48
2022-12-10T21:26:32.221Z,29.17
2022-12-10T21:28:44.353Z,27.90
2022-12-10T21:30:50.427Z,25.83
2022-12-10T21:32:55.327Z,27.23
2022-12-10T21:35:00.102Z,27.00
2022-12-10T21:37:04.871Z,27.10
2022-12-10T21:39:09.690Z,27.92
2022-12-10T21:41:33.272Z,27.48
2022-12-10T21:43:48.551Z,26.13
2022-12-10T21:45:59.769Z,28.52
2022-12-10T21:48:08.330Z,27.63
2022-12-10T21:50:13.448Z,23.90
2022-12-10T21:52:22.729Z,29.05
2022-12-10T21:54:28.116Z,26.75
2022-12-10T21:56:33.407Z,25.80
2022-12-10T21:58:39.402Z,26.63
2022-12-10T22:00:46.829Z,26.65
2022-12-10T22:02:51.728Z,27.98
2022-12-10T22:05:08.659Z,26.75
2022-12-10T22:07:17.695Z,26.30
2022-12-10T22:09:22.516Z,24.75
2022-12-10T22:11:27.341Z,26.15
2022-12-10T22:13:32.104Z,24.52
2022-12-10T22:15:36.878Z,28.50
2022-12-10T22:17:44.251Z,25.35
2022-12-10T22:19:49.051Z,26.13
2022-12-10T22:21:53.754Z,27.52
2022-12-10T22:23:58.593Z,25.23
2022-12-10T22:26:03.384Z,26.35
2022-12-10T22:28:08.587Z,25.10
2022-12-10T22:32:19.027Z,24.77
2022-12-10T22:34:26.432Z,28.90
2022-12-10T22:36:31.329Z,25.70
2022-12-10T22:38:36.278Z,22.20
2022-12-10T22:40:43.972Z,26.00
2022-12-10T22:42:49.952Z,24.13
2022-12-10T22:44:55.329Z,23.40
2022-12-10T22:47:00.201Z,20.95
2022-12-10T22:49:05.186Z,21.15
2022-12-10T22:51:13.083Z,24.15
2022-12-10T22:53:17.884Z,21.50
2022-12-10T22:55:22.640Z,20.80
2022-12-10T22:57:27.479Z,22.52
2022-12-10T22:59:32.320Z,24.05
2022-12-10T23:01:37.165Z,23.23
2022-12-10T23:03:42.233Z,22.55
2022-12-10T23:07:56.124Z,27.20
2022-12-10T23:10:00.991Z,24.48
2022-12-10T23:12:18.198Z,23.40
2022-12-10T23:14:22.990Z,22.55
2022-12-10T23:16:27.863Z,25.25
2022-12-10T23:18:32.746Z,24.15
2022-12-10T23:20:37.575Z,22.85
2022-12-10T23:22:42.385Z,22.58
2022-12-10T23:24:49.898Z,24.05
2022-12-10T23:26:55.075Z,24.75
2022-12-10T23:31:04.466Z,20.33
2022-12-10T23:33:09.577Z,25.60
2022-12-10T23:37:19.172Z,24.15
2022-12-10T23:39:23.973Z,21.27
2022-12-10T23:41:31.340Z,21.67
2022-12-10T23:43:36.280Z,25.70
2022-12-10T23:45:42.755Z,21.65
2022-12-10T23:47:47.606Z,21.65
2022-12-10T23:49:52.996Z,22.83
2022-12-10T23:51:57.771Z,22.15
2022-12-10T23:54:02.643Z,18.02
2022-12-10T23:56:16.868Z,21.80
2022-12-10T23:58:24.393Z,22.85
